WetterOnline ( http://www.wetteronline.de )

Wetter aktuell Chieming

Aktuelles Wetter: Chieming (553m)

6-stündlich | Neueste Meldungen
Ortszeit Temperatur Wetter
Fr, 27.04. 2:00 5.0° C wolkig
Do, 26.04. 20:00 10.0° C bedeckt
Do, 26.04. 14:00 9.7° C bedeckt
Do, 26.04. 8:00 9.4° C Sprühregen
Do, 26.04. 2:00 12.7° C bewölkt
Mi, 25.04. 20:00 19.9° C bewölkt
Mi, 25.04. 14:00 22.3° C leicht bewölkt
Mi, 25.04. 8:00 12.9° C wolkenlos
Ortszeit Temperatur Wetter
Fr, 27.04. 2:30 4.8° C wolkig
Fr, 27.04. 2:20 4.8° C wolkig
Fr, 27.04. 2:10 5.4° C wolkig
Fr, 27.04. 2:00 5.0° C wolkig
Fr, 27.04. 1:40 5.2° C wolkig
Fr, 27.04. 1:30 6.0° C wolkig
Fr, 27.04. 1:00 6.3° C wolkig
Fr, 27.04. 0:30 6.6° C bedeckt
Fr, 27.04. 0:00 6.8° C bedeckt
Do, 26.04. 23:30 7.4° C bedeckt
Ortszeit Relative Feuchte Sichtweite
Fr, 27.04. 2:00 97% 26 km
Do, 26.04. 20:00 74% 50 km
Do, 26.04. 14:00 81% 50 km
Do, 26.04. 8:00 93% 9 km
Do, 26.04. 2:00 99% 11 km
Mi, 25.04. 20:00 51% 40 km
Mi, 25.04. 14:00 43% 26 km
Mi, 25.04. 8:00 81% 35 km
Ortszeit Relative Feuchte Sichtweite
Fr, 27.04. 2:30 95% 24 km
Fr, 27.04. 2:20 95% -
Fr, 27.04. 2:10 95% -
Fr, 27.04. 2:00 97% 26 km
Fr, 27.04. 1:40 97% -
Fr, 27.04. 1:30 96% 29 km
Fr, 27.04. 1:00 96% 25 km
Fr, 27.04. 0:30 93% 29 km
Fr, 27.04. 0:00 92% 28 km
Do, 26.04. 23:30 88% 40 km
Ortszeit Niederschlagsmenge Niederschlagsart
Fr, 27.04. 2:00 0.0 l/m2 in 6 Std. -
Do, 26.04. 20:00 1 l/m2 in 12 Std. Sprühregen
Do, 26.04. 14:00 1 l/m2 in 6 Std. Regen
Do, 26.04. 8:00 8 l/m2 in 12 Std. Regen
Do, 26.04. 2:00 2 l/m2 in 6 Std. Regen
Mi, 25.04. 20:00 0.0 l/m2 in 12 Std. -
Mi, 25.04. 14:00 0.0 l/m2 in 6 Std. -
Mi, 25.04. 8:00 0.0 l/m2 in 12 Std. -
Ortszeit Niederschlagsmenge Niederschlagsart
Fr, 27.04. 2:30 0.0 l/m2 in 1 Std. -
Fr, 27.04. 2:20 keine Meldung -
Fr, 27.04. 2:10 keine Meldung -
Fr, 27.04. 2:00 0.0 l/m2 in 1 Std. -
Fr, 27.04. 1:40 keine Meldung -
Fr, 27.04. 1:30 0.0 l/m2 in 1 Std. -
Fr, 27.04. 1:00 0.0 l/m2 in 1 Std. -
Fr, 27.04. 0:30 0.0 l/m2 in 1 Std. -
Fr, 27.04. 0:00 0.0 l/m2 in 1 Std. -
Do, 26.04. 23:30 0.0 l/m2 in 1 Std. -
Ortszeit Stärke Spitze Richtung
km/h Bft. km/h Grad Sektor
Fr, 27.04. 2:00 7 2 22 90° O
Do, 26.04. 20:00 18 3 36 200° S
Do, 26.04. 14:00 13 3 35 220° SW
Do, 26.04. 8:00 11 2 25 320° NW
Do, 26.04. 2:00 4 1 25 80° O
Mi, 25.04. 20:00 20 4 44 290° W
Mi, 25.04. 14:00 11 2 29 240° SW
Mi, 25.04. 8:00 6 1 17 260° W
Ortszeit Stärke Spitze Richtung
km/h Bft. km/h Grad Sektor
Fr, 27.04. 2:30 4 1 11 90° O
Fr, 27.04. 2:20 4 1 - 90° O
Fr, 27.04. 2:10 6 1 - 90° O
Fr, 27.04. 2:00 7 2 11 90° O
Fr, 27.04. 1:40 7 2 - 90° O
Fr, 27.04. 1:30 7 2 7 100° O
Fr, 27.04. 1:00 4 1 7 80° O
Fr, 27.04. 0:30 4 1 7 110° O
Fr, 27.04. 0:00 4 1 14 120° SO
Do, 26.04. 23:30 7 2 14 160° S
Ortszeit Untergrenze Bedeckung Gattung
total tief tief mittel hoch
Fr, 27.04. 2:00 8100 m 8/8 0/8 - - -
Do, 26.04. 20:00 1500 m 8/8 8/8 - - -
Do, 26.04. 14:00 1110 m 8/8 8/8 - - -
Do, 26.04. 8:00 240 m 7/8 7/8 - - -
Do, 26.04. 2:00 1260 m 8/8 7/8 - - -
Mi, 25.04. 20:00 2100 m 7/8 7/8 - - -
Mi, 25.04. 14:00 2400 m 6/8 - - - -
Mi, 25.04. 8:00 - 0/8 0/8 - - -
Ortszeit Bedeckungsgrad in Achtel und Wolkenuntergrenze
Fr, 27.04. 2:30 8(7800m) 8(9000m)
Fr, 27.04. 2:20 8(7800m) 8(9000m)
Fr, 27.04. 2:10 8(7800m) 8(9000m)
Fr, 27.04. 2:00 8(8100m)
Fr, 27.04. 1:40 8(8100m)
Fr, 27.04. 1:30 8(8400m) 8(9000m)
Fr, 27.04. 1:00 1(1500m) 8(8400m) 8(9000m)
Fr, 27.04. 0:30 1(1500m) 8(2100m)
Fr, 27.04. 0:00 8(2100m) 8(9000m) 8(9000m)
Do, 26.04. 23:30 8(2100m) 8(9000m) 8(9000m)
Ortszeit Luftdruck NN (hPa) Tendenz (hPa in 3 Std.)
Fr, 27.04. 2:00 1021 - 0,6
Do, 26.04. 20:00 1019 - 0,4
Do, 26.04. 14:00 1020 - 0,5
Do, 26.04. 8:00 1018 + 1,6
Do, 26.04. 2:00 1015 + 0,4
Mi, 25.04. 20:00 1010 + 0,1
Mi, 25.04. 14:00 1011 - 2,1
Mi, 25.04. 8:00 1016 + 1,1
Ortszeit Luftdruck NN (hPa) Tendenz (hPa in 3 Std.)
Fr, 27.04. 2:30 1020 - 1,0
Fr, 27.04. 2:20 1020 keine Meldung
Fr, 27.04. 2:10 1021 keine Meldung
Fr, 27.04. 2:00 1021 - 0,6
Fr, 27.04. 1:40 1021 keine Meldung
Fr, 27.04. 1:30 1021 - 0,2
Fr, 27.04. 1:00 1021 - 0,2
Fr, 27.04. 0:30 1021 + 0,1
Fr, 27.04. 0:00 1021 + 0,5
Do, 26.04. 23:30 1021 + 0,7
Ortszeit Schneehöhe (cm)
Fr, 27.04. 2:00 0
Do, 26.04. 20:00 0
Do, 26.04. 14:00 0
Do, 26.04. 8:00 0
Do, 26.04. 2:00 0
Mi, 25.04. 20:00 0
Mi, 25.04. 14:00 0
Mi, 25.04. 8:00 0
Ortszeit Schneehöhe (cm)
Fr, 27.04. 2:30 0
Fr, 27.04. 2:20 0
Fr, 27.04. 2:10 0
Fr, 27.04. 2:00 0
Fr, 27.04. 1:40 0
Fr, 27.04. 1:30 0
Fr, 27.04. 1:00 0
Fr, 27.04. 0:30 0
Fr, 27.04. 0:00 0
Do, 26.04. 23:30 0
Link zu dieser Seite / Seite empfehlen

Das Wetter in ...